Time;durP1;ratioP1;P1;durP2;ratioP2;P2;SDS_P1;SDS_P2;PMS_P1;PMS_P2;Temp;Humidity;BMP_temperature;BMP_pressure;BME280_temperature;BME280_humidity;BME280_pressure;Samples;Min_cycle;Max_cycle;Signal;HPM_P1;HPM_P2
2022/12/04 00:01:26;;;;;;;26.27;13.32;;;6.40;99.10;;;;;;4952534;28;20294;-73
2022/12/04 00:03:55;;;;;;;22.60;13.33;;;6.40;99.10;;;;;;4952579;28;20197;-73
2022/12/04 00:06:22;;;;;;;19.87;12.60;;;6.40;99.10;;;;;;4953892;28;20501;-73
2022/12/04 00:08:49;;;;;;;24.45;13.85;;;6.40;99.20;;;;;;4952175;28;20446;-73
2022/12/04 00:11:21;;;;;;;24.40;13.50;;;6.40;99.10;;;;;;4954321;28;20217;-73
2022/12/04 00:13:49;;;;;;;20.10;12.27;;;6.40;99.10;;;;;;4956228;28;20218;-73
2022/12/04 00:16:19;;;;;;;20.55;12.98;;;6.40;99.10;;;;;;4956066;28;20232;-73
2022/12/04 00:18:46;;;;;;;22.50;13.53;;;6.40;99.10;;;;;;4939814;28;20660;-73
2022/12/04 00:21:15;;;;;;;26.33;13.93;;;6.40;99.10;;;;;;4940016;28;20431;-73
2022/12/04 00:23:45;;;;;;;21.42;13.85;;;6.40;99.20;;;;;;4972795;28;20409;-73
2022/12/04 00:26:14;;;;;;;21.67;11.90;;;6.40;99.20;;;;;;4955805;28;20782;-73
2022/12/04 00:28:40;;;;;;;22.30;12.80;;;6.40;99.20;;;;;;4955425;28;20455;-73
2022/12/04 00:31:12;;;;;;;19.37;12.27;;;6.30;99.20;;;;;;4972946;28;20481;-73
2022/12/04 00:33:40;;;;;;;25.30;12.75;;;6.40;99.20;;;;;;4938808;28;20535;-73
2022/12/04 00:36:11;;;;;;;21.37;13.10;;;6.40;99.20;;;;;;4969643;28;20197;-73
2022/12/04 00:38:41;;;;;;;21.42;13.90;;;6.40;99.20;;;;;;4971518;28;20972;-73
2022/12/04 00:41:12;;;;;;;19.10;12.07;;;6.30;99.10;;;;;;4955529;28;20210;-73
2022/12/04 00:43:39;;;;;;;22.57;12.97;;;6.40;99.20;;;;;;4972841;28;20403;-73
2022/12/04 00:46:05;;;;;;;22.40;13.00;;;6.40;99.10;;;;;;4955258;28;20487;-73
2022/12/04 00:48:31;;;;;;;22.77;12.47;;;6.30;99.10;;;;;;4971458;28;20200;-73
2022/12/04 00:51:07;;;;;;;22.47;12.70;;;6.30;99.20;;;;;;4972471;28;20498;-73
2022/12/04 00:53:33;;;;;;;23.02;12.93;;;6.30;99.20;;;;;;4971649;28;20443;-73
2022/12/04 00:56:03;;;;;;;21.07;12.27;;;6.40;99.20;;;;;;4939654;28;20243;-73
2022/12/04 00:58:29;;;;;;;23.73;12.20;;;6.30;99.20;;;;;;4972256;28;20432;-73
2022/12/04 01:01:14;;;;;;;21.20;12.37;;;6.30;99.10;;;;;;4971289;28;20476;-73
2022/12/04 01:03:40;;;;;;;23.63;12.93;;;6.30;99.10;;;;;;4954790;28;20490;-73
2022/12/04 01:06:16;;;;;;;20.27;13.40;;;6.30;99.10;;;;;;4955599;28;20163;-73
2022/12/04 01:08:41;;;;;;;23.60;13.93;;;6.30;99.10;;;;;;4971985;28;20435;-73
2022/12/04 01:11:09;;;;;;;19.87;12.30;;;6.30;99.20;;;;;;4955228;28;20897;-73
2022/12/04 01:13:38;;;;;;;22.90;13.53;;;6.30;99.20;;;;;;4971365;28;20445;-73
2022/12/04 01:16:04;;;;;;;21.03;12.60;;;6.30;99.20;;;;;;5032607;23;20506;-74
2022/12/04 01:18:34;;;;;;;21.13;12.60;;;6.30;99.10;;;;;;4943164;28;20506;-76
2022/12/04 01:21:05;;;;;;;26.17;13.15;;;6.30;99.20;;;;;;4946105;28;20990;-76
2022/12/04 01:23:31;;;;;;;19.80;12.52;;;6.30;99.20;;;;;;4977111;28;20711;-76
2022/12/04 01:25:58;;;;;;;20.20;12.93;;;6.30;99.20;;;;;;4977740;28;21715;-76
2022/12/04 01:28:25;;;;;;;24.20;13.00;;;6.30;99.20;;;;;;4962154;28;20429;-76
2022/12/04 01:31:05;;;;;;;22.02;11.88;;;6.30;99.20;;;;;;4977347;28;20455;-76
2022/12/04 01:33:35;;;;;;;21.85;13.32;;;6.30;99.20;;;;;;4994203;28;20175;-76
2022/12/04 01:36:08;;;;;;;20.53;12.80;;;6.30;99.20;;;;;;4992033;28;20562;-76
2022/12/04 01:38:37;;;;;;;21.33;12.90;;;6.30;99.20;;;;;;4994239;28;20443;-76
2022/12/04 01:41:04;;;;;;;26.10;13.43;;;6.30;99.20;;;;;;4993319;28;20541;-76
2022/12/04 01:43:34;;;;;;;22.13;12.80;;;6.30;99.20;;;;;;4995279;28;20621;-76
2022/12/04 01:46:01;;;;;;;21.88;13.88;;;6.30;99.20;;;;;;4960949;28;20823;-76
2022/12/04 01:48:29;;;;;;;24.67;14.20;;;6.30;99.20;;;;;;4977621;28;20195;-76
2022/12/04 01:51:13;;;;;;;23.73;12.17;;;6.30;99.20;;;;;;4974302;28;20459;-76
2022/12/04 01:53:44;;;;;;;21.17;12.67;;;6.30;99.20;;;;;;4977546;28;20466;-76
2022/12/04 01:56:13;;;;;;;22.37;12.70;;;6.30;99.20;;;;;;4992826;28;20545;-76
2022/12/04 01:58:50;;;;;;;24.63;14.20;;;6.30;99.20;;;;;;4961412;28;20424;-76
2022/12/04 02:01:15;;;;;;;21.10;12.60;;;6.30;99.10;;;;;;4994489;28;20820;-76
2022/12/04 02:03:42;;;;;;;23.23;13.67;;;6.30;99.20;;;;;;4977661;28;20426;-76
2022/12/04 02:06:08;;;;;;;24.38;13.73;;;6.30;99.20;;;;;;4976871;28;20508;-76
2022/12/04 02:08:37;;;;;;;22.07;12.40;;;6.30;99.20;;;;;;4977202;28;20194;-76
2022/12/04 02:11:33;;;;;;;20.50;13.20;;;6.30;99.20;;;;;;4960362;28;20460;-76
2022/12/04 02:14:22;;;;;;;21.60;12.75;;;6.30;99.20;;;;;;4994741;28;20620;-76
2022/12/04 02:16:58;;;;;;;21.50;12.57;;;6.30;99.20;;;;;;4966252;28;20227;-76
2022/12/04 02:19:48;;;;;;;24.77;13.30;;;6.30;99.20;;;;;;4977084;28;20472;-76
2022/12/04 02:22:53;;;;;;;21.48;13.45;;;6.30;99.20;;;;;;4960821;28;20212;-76
2022/12/04 02:25:41;;;;;;;21.73;12.67;;;6.30;99.20;;;;;;4976969;28;20626;-76
2022/12/04 02:28:16;;;;;;;21.00;12.37;;;6.30;99.20;;;;;;4961067;28;20768;-76
2022/12/04 02:30:46;;;;;;;20.03;12.23;;;6.30;99.20;;;;;;4960212;28;20971;-76
2022/12/04 02:33:22;;;;;;;22.77;13.33;;;6.30;99.30;;;;;;4977157;28;20458;-75
2022/12/04 02:35:59;;;;;;;22.63;12.77;;;6.30;99.30;;;;;;4959650;28;20885;-76
2022/12/04 02:38:34;;;;;;;20.98;13.15;;;6.30;99.20;;;;;;4976772;28;20568;-76
2022/12/04 02:41:11;;;;;;;21.95;12.15;;;6.30;99.30;;;;;;4976099;28;20657;-76
2022/12/04 02:43:52;;;;;;;20.87;12.17;;;6.30;99.30;;;;;;4976999;28;20213;-76
2022/12/04 02:46:38;;;;;;;21.97;12.23;;;6.30;99.30;;;;;;4975741;28;20443;-76
2022/12/04 02:49:11;;;;;;;25.77;13.87;;;6.30;99.60;;;;;;4976068;28;20414;-76
2022/12/04 02:51:40;;;;;;;19.00;12.33;;;6.30;99.20;;;;;;4976757;28;20442;-76
2022/12/04 02:54:21;;;;;;;21.80;12.67;;;6.20;99.60;;;;;;4976334;28;20455;-76
2022/12/04 02:56:55;;;;;;;19.37;12.57;;;6.20;99.20;;;;;;4967471;28;20466;-76
2022/12/04 02:59:31;;;;;;;20.37;12.40;;;6.20;99.20;;;;;;4975674;28;20426;-76
2022/12/04 03:02:01;;;;;;;23.60;12.73;;;6.30;99.30;;;;;;4960329;28;20452;-76
2022/12/04 03:04:31;;;;;;;17.80;11.18;;;6.20;99.20;;;;;;4975969;28;20436;-76
2022/12/04 03:07:17;;;;;;;22.40;12.67;;;6.30;99.20;;;;;;4976305;28;20176;-75
2022/12/04 03:09:58;;;;;;;23.20;13.57;;;6.30;99.20;;;;;;4991648;28;20517;-76
2022/12/04 03:13:12;;;;;;;21.80;12.60;;;6.30;99.30;;;;;;4975757;28;20601;-76
2022/12/04 03:15:55;;;;;;;20.90;11.75;;;6.30;99.30;;;;;;4951648;29;20680;-76
2022/12/04 03:18:36;;;;;;;19.43;11.53;;;6.20;99.20;;;;;;4941702;29;20210;-75
2022/12/04 03:21:08;;;;;;;21.73;12.40;;;6.20;99.20;;;;;;4938260;29;20995;-76
2022/12/04 03:23:39;;;;;;;21.20;12.05;;;6.20;99.20;;;;;;4952384;29;20449;-76
2022/12/04 03:26:16;;;;;;;20.30;11.55;;;6.20;99.20;;;;;;4935567;29;20816;-76
2022/12/04 03:29:06;;;;;;;23.00;12.05;;;6.30;99.30;;;;;;4952431;29;20720;-76
2022/12/04 03:31:49;;;;;;;19.27;12.50;;;6.20;99.20;;;;;;4951801;29;20205;-75
2022/12/04 03:34:32;;;;;;;19.10;12.00;;;6.20;99.20;;;;;;4945741;29;20588;-76
2022/12/04 03:37:05;;;;;;;24.35;13.30;;;6.20;99.20;;;;;;4951576;28;20474;-76
2022/12/04 03:39:42;;;;;;;24.37;13.83;;;6.20;99.20;;;;;;4935955;29;20290;-75
2022/12/04 03:42:47;;;;;;;19.40;12.07;;;6.20;99.20;;;;;;4935031;29;20489;-76
2022/12/04 03:45:37;;;;;;;20.73;11.87;;;6.20;99.20;;;;;;4927969;28;20436;-76
2022/12/04 03:48:11;;;;;;;20.30;12.20;;;6.20;99.30;;;;;;4956553;28;20468;-75
2022/12/04 03:50:41;;;;;;;20.43;11.70;;;6.20;99.20;;;;;;4977860;28;20215;-76
2022/12/04 03:53:24;;;;;;;22.80;13.25;;;6.20;99.30;;;;;;4975359;28;21117;-76
2022/12/04 03:56:03;;;;;;;20.10;12.43;;;6.20;99.30;;;;;;4974444;28;20284;-76
2022/12/04 03:58:32;;;;;;;21.90;11.73;;;6.20;99.30;;;;;;4945573;28;20218;-76
2022/12/04 04:01:04;;;;;;;22.23;12.40;;;6.20;99.30;;;;;;4966291;28;20992;-76
2022/12/04 04:03:34;;;;;;;20.52;12.20;;;6.20;99.30;;;;;;4991548;28;20416;-76
2022/12/04 04:06:08;;;;;;;22.33;12.65;;;6.20;99.20;;;;;;4975348;28;20555;-76
2022/12/04 04:08:38;;;;;;;17.53;10.43;;;6.20;99.30;;;;;;4959449;28;20230;-75
2022/12/04 04:11:19;;;;;;;19.50;12.20;;;6.20;99.30;;;;;;4973013;28;20470;-76
2022/12/04 04:25:25;;;;;;;20.50;12.00;;;6.20;99.30;;;;;;4991854;28;20183;-76
2022/12/04 04:27:53;;;;;;;19.47;11.40;;;6.20;99.30;;;;;;4959143;28;20497;-76
2022/12/04 04:30:20;;;;;;;20.40;12.40;;;6.20;99.30;;;;;;4958605;28;20466;-76
2022/12/04 04:33:20;;;;;;;20.57;12.17;;;6.20;99.30;;;;;;4958468;28;20447;-76
2022/12/04 04:35:56;;;;;;;19.40;11.83;;;6.20;99.30;;;;;;4980479;28;20480;-76
2022/12/04 04:38:30;;;;;;;19.27;12.05;;;6.20;99.30;;;;;;4974465;28;20479;-75
2022/12/04 04:41:07;;;;;;;20.70;11.80;;;6.20;99.30;;;;;;4992254;28;20203;-76
2022/12/04 04:43:42;;;;;;;22.25;12.48;;;6.20;99.40;;;;;;4991084;28;20461;-76
2022/12/04 04:46:12;;;;;;;22.13;11.40;;;6.20;99.40;;;;;;4974699;28;20280;-76
2022/12/04 04:48:42;;;;;;;19.35;12.82;;;6.10;99.30;;;;;;4974733;28;20450;-76
2022/12/04 04:51:10;;;;;;;18.70;11.80;;;6.10;99.40;;;;;;4994654;28;20210;-76
2022/12/04 04:53:44;;;;;;;18.60;10.50;;;6.10;99.40;;;;;;4958615;28;20294;-76
2022/12/04 04:56:11;;;;;;;18.05;10.35;;;6.20;99.40;;;;;;4971237;28;20307;-76
2022/12/04 04:58:37;;;;;;;19.20;12.30;;;6.10;99.30;;;;;;4977937;28;20197;-75
2022/12/04 05:01:14;;;;;;;17.65;11.10;;;6.20;99.40;;;;;;4995890;28;20201;-76
2022/12/04 05:03:41;;;;;;;20.10;12.30;;;6.10;99.30;;;;;;4977979;28;20198;-76
2022/12/04 05:06:07;;;;;;;20.37;10.67;;;6.10;99.30;;;;;;4961914;28;20990;-76
2022/12/04 05:08:38;;;;;;;16.43;10.80;;;6.20;99.40;;;;;;4961929;28;20444;-76
2022/12/04 05:11:05;;;;;;;16.77;10.35;;;6.10;99.20;;;;;;4978339;28;20490;-76
2022/12/04 05:13:35;;;;;;;16.08;10.90;;;6.10;99.30;;;;;;4971051;28;20195;-77
2022/12/04 05:16:06;;;;;;;17.05;10.73;;;6.10;99.20;;;;;;4945941;28;20223;-76
2022/12/04 05:18:34;;;;;;;19.95;11.63;;;6.10;99.30;;;;;;4993679;28;20198;-76
2022/12/04 05:21:17;;;;;;;15.07;9.33;;;6.20;99.30;;;;;;4978107;28;20254;-76
2022/12/04 05:23:43;;;;;;;17.65;11.43;;;6.10;99.30;;;;;;4977782;28;20446;-75
2022/12/04 05:26:10;;;;;;;17.50;11.25;;;6.10;99.20;;;;;;4962421;28;20522;-75
2022/12/04 05:28:36;;;;;;;18.08;10.85;;;6.10;99.20;;;;;;4962503;28;20216;-76
2022/12/04 05:31:03;;;;;;;18.63;10.23;;;6.10;99.20;;;;;;4973734;28;20214;-76
2022/12/04 05:33:29;;;;;;;18.83;11.93;;;6.10;99.30;;;;;;4977462;28;20587;-76
2022/12/04 05:36:04;;;;;;;17.95;10.65;;;6.10;99.30;;;;;;4994253;28;20443;-76
2022/12/04 05:38:31;;;;;;;18.30;11.05;;;6.10;99.30;;;;;;4965101;28;20208;-76
2022/12/04 05:40:58;;;;;;;15.77;9.53;;;6.10;99.20;;;;;;4984323;28;20563;-75
2022/12/04 05:43:27;;;;;;;17.58;9.73;;;6.10;99.20;;;;;;4977893;28;20431;-76
2022/12/04 05:45:53;;;;;;;15.23;10.38;;;6.10;99.20;;;;;;4992473;28;20222;-76
2022/12/04 05:48:19;;;;;;;17.27;10.52;;;6.10;99.20;;;;;;4961739;28;20245;-76
2022/12/04 05:50:45;;;;;;;15.13;9.80;;;6.10;99.20;;;;;;4985574;28;20200;-76
2022/12/04 05:53:11;;;;;;;19.57;10.70;;;6.10;99.20;;;;;;4958456;28;20424;-76
2022/12/04 05:55:37;;;;;;;15.47;10.77;;;6.10;99.20;;;;;;4974036;28;20502;-76
2022/12/04 05:58:03;;;;;;;14.70;9.00;;;6.10;99.20;;;;;;4975254;28;21004;-76
2022/12/04 06:00:31;;;;;;;14.88;9.35;;;6.10;99.20;;;;;;4976065;28;20218;-76
2022/12/04 06:02:58;;;;;;;15.68;9.50;;;6.10;99.20;;;;;;4995056;28;20290;-76
2022/12/04 06:05:28;;;;;;;15.57;9.20;;;6.10;99.20;;;;;;4959992;28;20182;-75
2022/12/04 06:07:54;;;;;;;14.53;9.43;;;6.10;99.20;;;;;;4977635;28;20188;-75
2022/12/04 06:10:20;;;;;;;16.93;10.43;;;6.10;99.20;;;;;;4993734;28;21125;-76
2022/12/04 06:12:46;;;;;;;15.07;9.80;;;6.10;99.20;;;;;;4961153;28;20430;-76
2022/12/04 06:15:16;;;;;;;16.87;10.60;;;6.10;99.20;;;;;;4993995;28;20213;-76
2022/12/04 06:17:42;;;;;;;15.43;9.85;;;6.00;99.20;;;;;;4947268;28;20461;-76
2022/12/04 06:20:08;;;;;;;14.82;9.25;;;6.00;99.20;;;;;;4976674;28;20206;-76
2022/12/04 06:22:34;;;;;;;13.65;8.80;;;6.00;99.20;;;;;;4960471;28;20178;-76
2022/12/04 06:25:00;;;;;;;17.37;9.67;;;6.10;99.30;;;;;;4960423;28;20556;-76
2022/12/04 06:27:26;;;;;;;13.30;8.70;;;6.00;99.20;;;;;;4961055;28;20806;-76
2022/12/04 06:29:57;;;;;;;17.35;10.02;;;6.00;99.20;;;;;;4959818;28;20447;-76
2022/12/04 06:32:23;;;;;;;13.93;8.48;;;6.10;99.20;;;;;;4992444;28;20187;-76
2022/12/04 06:34:54;;;;;;;15.15;9.40;;;6.10;99.20;;;;;;4990347;28;20259;-75
2022/12/04 06:37:22;;;;;;;15.63;9.35;;;6.00;99.10;;;;;;4925955;28;20275;-75
2022/12/04 06:39:49;;;;;;;14.77;9.00;;;6.00;99.10;;;;;;4926624;28;20218;-76
2022/12/04 06:42:17;;;;;;;18.03;10.60;;;6.00;99.10;;;;;;4976606;28;20776;-75
2022/12/04 06:44:43;;;;;;;14.60;9.40;;;6.00;99.20;;;;;;4993206;28;20449;-75
2022/12/04 06:47:11;;;;;;;16.52;8.85;;;6.10;99.20;;;;;;4976799;28;20458;-75
2022/12/04 06:49:37;;;;;;;15.07;9.10;;;6.00;99.20;;;;;;4960061;28;20168;-75
2022/12/04 06:52:05;;;;;;;14.13;9.32;;;6.00;99.20;;;;;;4993052;28;20676;-76
2022/12/04 06:54:44;;;;;;;13.97;7.70;;;6.00;99.20;;;;;;4993346;28;20186;-75
2022/12/04 06:57:10;;;;;;;17.17;9.20;;;6.00;99.20;;;;;;4975737;28;20444;-75
2022/12/04 06:59:41;;;;;;;12.88;8.52;;;6.00;99.20;;;;;;4959774;28;20442;-75
2022/12/04 07:02:08;;;;;;;14.13;8.40;;;6.00;99.20;;;;;;4958622;28;20646;-76
2022/12/04 07:04:34;;;;;;;14.40;8.75;;;6.00;99.20;;;;;;4957315;28;20517;-75
2022/12/04 07:07:02;;;;;;;14.97;9.67;;;6.00;99.20;;;;;;4975546;28;20193;-75
2022/12/04 07:09:30;;;;;;;15.33;10.03;;;6.00;99.30;;;;;;4972158;28;20559;-75
2022/12/04 07:11:59;;;;;;;14.30;9.10;;;6.00;99.30;;;;;;4990761;28;20538;-75
2022/12/04 07:14:24;;;;;;;13.30;8.00;;;6.00;99.30;;;;;;4975968;28;20173;-75
2022/12/04 07:16:50;;;;;;;13.23;8.80;;;6.00;99.30;;;;;;4992265;28;20257;-75
2022/12/04 07:19:17;;;;;;;14.80;8.67;;;6.00;99.20;;;;;;4975340;28;20816;-75
2022/12/04 07:21:43;;;;;;;13.43;8.30;;;6.00;99.20;;;;;;4974144;28;20547;-76
2022/12/04 07:24:14;;;;;;;15.20;8.50;;;6.00;99.30;;;;;;4985662;28;20231;-76
2022/12/04 07:26:40;;;;;;;13.27;8.50;;;5.90;99.20;;;;;;4975839;28;20442;-76
2022/12/04 07:29:06;;;;;;;14.10;8.90;;;5.90;99.10;;;;;;4960066;28;20431;-75
2022/12/04 07:31:32;;;;;;;15.00;9.93;;;6.00;99.10;;;;;;4958469;28;20461;-77
2022/12/04 07:33:58;;;;;;;13.93;9.00;;;5.90;99.10;;;;;;4959021;28;21057;-77
2022/12/04 07:36:25;;;;;;;12.53;8.10;;;5.90;99.10;;;;;;4990371;28;20928;-76
2022/12/04 07:38:53;;;;;;;13.68;8.57;;;5.90;99.10;;;;;;4975320;28;20555;-76
2022/12/04 07:41:19;;;;;;;12.63;7.72;;;5.90;99.10;;;;;;4959661;28;20207;-76
2022/12/04 07:43:45;;;;;;;13.35;8.02;;;5.90;99.10;;;;;;4975383;28;20194;-76
2022/12/04 07:46:14;;;;;;;12.90;8.60;;;5.90;99.10;;;;;;4992229;28;20670;-76
2022/12/04 07:48:42;;;;;;;13.13;8.77;;;5.90;99.20;;;;;;4958788;28;20438;-75
2022/12/04 07:51:14;;;;;;;12.63;8.20;;;5.90;99.10;;;;;;4959654;28;20213;-76
2022/12/04 07:53:40;;;;;;;12.05;7.85;;;5.90;99.10;;;;;;4976516;28;20203;-76
2022/12/04 07:56:08;;;;;;;11.98;7.80;;;5.90;99.10;;;;;;4943862;28;20258;-74
2022/12/04 07:58:35;;;;;;;11.50;7.88;;;5.90;99.10;;;;;;4973520;28;20203;-75
2022/12/04 08:01:12;;;;;;;12.25;7.60;;;5.90;99.10;;;;;;4974878;28;20208;-74
2022/12/04 08:03:39;;;;;;;10.88;7.60;;;5.90;99.20;;;;;;4958462;28;20187;-75
2022/12/04 08:06:15;;;;;;;12.15;7.63;;;5.90;99.20;;;;;;4991471;28;20203;-74
2022/12/04 08:08:44;;;;;;;11.70;7.40;;;5.90;99.10;;;;;;4955895;28;20199;-75
2022/12/04 08:11:13;;;;;;;11.30;7.53;;;5.90;99.10;;;;;;4991601;28;20974;-74
2022/12/04 08:13:39;;;;;;;12.50;7.50;;;5.90;99.10;;;;;;4973893;28;20307;-74
2022/12/04 08:16:07;;;;;;;13.10;7.78;;;5.90;99.20;;;;;;4958282;28;20263;-75
2022/12/04 08:18:36;;;;;;;12.25;7.65;;;5.90;99.20;;;;;;4975471;28;20170;-75
2022/12/04 08:21:11;;;;;;;10.43;7.25;;;5.90;99.20;;;;;;4953185;28;20211;-76
2022/12/04 08:23:38;;;;;;;10.47;7.13;;;5.90;99.20;;;;;;4957045;28;20285;-75
2022/12/04 08:26:05;;;;;;;10.85;7.50;;;5.90;99.10;;;;;;4976308;28;20476;-75
2022/12/04 08:28:34;;;;;;;13.77;8.07;;;5.90;99.10;;;;;;4975762;28;20187;-76
2022/12/04 08:31:06;;;;;;;11.10;7.10;;;5.90;99.50;;;;;;4996021;28;20210;-78
2022/12/04 08:33:33;;;;;;;10.02;7.20;;;5.90;99.20;;;;;;4996721;28;20292;-74
2022/12/04 08:35:59;;;;;;;11.20;7.50;;;5.90;99.20;;;;;;4993625;28;20207;-79
2022/12/04 08:38:28;;;;;;;10.43;7.28;;;5.90;99.20;;;;;;4964979;28;20503;-78
2022/12/04 08:41:22;;;;;;;10.30;7.05;;;5.90;99.20;;;;;;4980988;28;20617;-76
2022/12/04 08:43:49;;;;;;;10.80;7.33;;;5.90;99.20;;;;;;4978135;28;20173;-78
2022/12/04 08:46:16;;;;;;;10.80;7.00;;;5.90;99.10;;;;;;4958836;28;20466;-74
2022/12/04 08:48:49;;;;;;;10.13;6.78;;;5.90;99.10;;;;;;4976854;28;20193;-78
2022/12/04 08:51:18;;;;;;;9.60;7.23;;;5.90;99.10;;;;;;4952961;28;20307;-77
2022/12/04 08:53:44;;;;;;;10.80;7.15;;;5.90;99.10;;;;;;4979589;28;20441;-78
2022/12/04 08:56:13;;;;;;;10.25;6.63;;;5.80;99.00;;;;;;4974950;28;20204;-75
2022/12/04 08:58:41;;;;;;;10.17;6.93;;;5.90;99.10;;;;;;4964242;28;20177;-78
2022/12/04 09:01:12;;;;;;;10.20;7.07;;;5.90;99.10;;;;;;4979492;28;21264;-78
2022/12/04 09:03:38;;;;;;;8.25;6.70;;;5.80;99.10;;;;;;4975011;28;20420;-74
2022/12/04 09:06:05;;;;;;;9.32;6.60;;;5.80;99.00;;;;;;4976499;28;20178;-79
2022/12/04 09:08:32;;;;;;;10.02;7.20;;;5.90;99.00;;;;;;4945917;28;20186;-80
2022/12/04 09:11:04;;;;;;;10.68;7.07;;;5.90;99.00;;;;;;4967455;28;20216;-81
2022/12/04 09:13:35;;;;;;;10.32;7.00;;;5.90;99.00;;;;;;4995111;28;20752;-77
2022/12/04 09:16:20;;;;;;;10.20;6.85;;;5.90;99.00;;;;;;4977486;28;20219;-77
2022/12/04 09:18:47;;;;;;;11.97;7.00;;;5.80;99.30;;;;;;4977595;28;20184;-77
2022/12/04 09:21:19;;;;;;;10.32;6.10;;;5.80;98.90;;;;;;4994963;28;20483;-74
2022/12/04 09:23:45;;;;;;;11.90;6.50;;;5.80;99.00;;;;;;4994355;28;20186;-77
2022/12/04 09:26:20;;;;;;;11.15;7.60;;;5.80;99.00;;;;;;4995018;28;20170;-77
2022/12/04 09:28:47;;;;;;;11.25;7.80;;;5.80;99.00;;;;;;4961239;28;20190;-77
2022/12/04 09:31:14;;;;;;;10.45;7.40;;;5.80;99.00;;;;;;4983747;28;20199;-77
2022/12/04 09:33:40;;;;;;;8.18;6.38;;;5.80;99.00;;;;;;4971054;28;20244;-78
2022/12/04 09:36:14;;;;;;;8.30;6.63;;;5.80;99.00;;;;;;4941085;28;20220;-78
2022/12/04 09:38:44;;;;;;;8.48;5.95;;;5.80;99.00;;;;;;4957647;28;20209;-76
2022/12/04 09:41:17;;;;;;;11.38;6.85;;;5.80;99.00;;;;;;4959887;28;20283;-77
2022/12/04 09:44:00;;;;;;;11.30;7.10;;;5.90;99.00;;;;;;4977816;28;20587;-77
2022/12/04 09:46:59;;;;;;;11.02;6.63;;;5.80;98.90;;;;;;4962805;28;20172;-77
2022/12/04 09:49:35;;;;;;;9.45;6.15;;;5.80;99.00;;;;;;4960932;28;20215;-77
2022/12/04 09:52:06;;;;;;;11.13;7.20;;;5.90;99.10;;;;;;4959240;28;20257;-77
2022/12/04 09:54:41;;;;;;;11.98;6.65;;;5.80;99.00;;;;;;4978018;28;20186;-79
2022/12/04 09:57:16;;;;;;;9.30;6.60;;;5.90;99.00;;;;;;4991493;28;20272;-78
2022/12/04 09:59:46;;;;;;;12.05;6.80;;;5.80;99.00;;;;;;4959306;28;20246;-76
2022/12/04 10:02:23;;;;;;;8.70;6.55;;;5.80;99.00;;;;;;4976393;28;20278;-74
2022/12/04 10:04:51;;;;;;;10.23;6.80;;;5.80;99.00;;;;;;4958361;28;20210;-73
2022/12/04 10:07:28;;;;;;;10.40;7.00;;;5.90;99.00;;;;;;4975916;28;20512;-73
2022/12/04 10:10:15;;;;;;;8.43;6.25;;;5.90;99.00;;;;;;4990670;28;20573;-73
2022/12/04 10:12:53;;;;;;;8.85;6.40;;;5.90;98.90;;;;;;4993308;28;20163;-72
2022/12/04 10:15:31;;;;;;;9.27;6.05;;;5.90;98.90;;;;;;4974526;28;20221;-76
2022/12/04 10:18:12;;;;;;;9.50;6.23;;;5.80;98.80;;;;;;4960364;28;20359;-73
2022/12/04 10:21:06;;;;;;;10.63;6.47;;;5.80;98.90;;;;;;4959221;28;20562;-79
2022/12/04 10:23:35;;;;;;;11.52;6.82;;;5.90;98.90;;;;;;4959669;28;20194;-75
2022/12/04 10:26:03;;;;;;;12.70;7.60;;;5.90;98.80;;;;;;4993577;28;20180;-74
2022/12/04 10:28:32;;;;;;;11.27;7.15;;;5.90;98.80;;;;;;4974733;28;20956;-75
2022/12/04 10:31:01;;;;;;;11.37;7.33;;;5.80;98.70;;;;;;4946296;28;20295;-74
2022/12/04 10:33:48;;;;;;;9.25;7.13;;;5.80;98.80;;;;;;4978144;28;20455;-74
2022/12/04 10:36:20;;;;;;;9.13;6.40;;;5.80;98.70;;;;;;4990413;28;20232;-74
2022/12/04 10:38:48;;;;;;;9.90;7.57;;;5.90;98.80;;;;;;4974148;28;20194;-78
2022/12/04 10:41:51;;;;;;;10.70;7.07;;;5.80;98.70;;;;;;4992730;28;20711;-76
2022/12/04 10:44:19;;;;;;;9.20;6.53;;;5.90;98.80;;;;;;4933834;28;20724;-79
2022/12/04 10:46:49;;;;;;;12.68;7.95;;;5.80;98.80;;;;;;4978427;28;20183;-76
2022/12/04 10:49:30;;;;;;;8.75;6.20;;;5.90;98.80;;;;;;4992286;28;20626;-76
2022/12/04 10:51:59;;;;;;;10.50;7.10;;;5.80;98.80;;;;;;4957362;28;20747;-77
2022/12/04 10:54:33;;;;;;;11.23;6.63;;;5.80;98.80;;;;;;4982620;28;20570;-77
2022/12/04 10:57:00;;;;;;;10.00;7.13;;;5.80;98.80;;;;;;4982371;28;20205;-76
2022/12/04 10:59:29;;;;;;;11.43;7.30;;;5.90;98.80;;;;;;4993546;28;20198;-76
2022/12/04 11:02:13;;;;;;;10.43;7.35;;;5.90;98.80;;;;;;4977565;28;20203;-78
2022/12/04 11:04:41;;;;;;;10.45;7.18;;;5.90;98.80;;;;;;4977209;28;20253;-77
2022/12/04 11:07:20;;;;;;;10.48;7.00;;;5.90;98.80;;;;;;4961218;28;20195;-77
2022/12/04 11:10:02;;;;;;;11.07;8.17;;;5.90;98.70;;;;;;4977547;28;20192;-77
2022/12/04 11:12:31;;;;;;;9.70;6.43;;;5.90;98.80;;;;;;4977864;28;20425;-75
2022/12/04 11:15:15;;;;;;;11.38;6.70;;;5.90;98.80;;;;;;4983793;28;20198;-75
2022/12/04 11:17:41;;;;;;;11.00;7.85;;;5.90;98.80;;;;;;4960916;28;20246;-76
2022/12/04 11:20:18;;;;;;;10.30;7.30;;;5.90;98.80;;;;;;4976145;28;20545;-77
2022/12/04 11:22:56;;;;;;;9.18;6.32;;;5.90;98.80;;;;;;4976315;28;20976;-76
2022/12/04 11:25:33;;;;;;;7.90;6.38;;;5.90;98.80;;;;;;4976710;28;20203;-77
2022/12/04 11:28:01;;;;;;;9.25;6.30;;;5.90;98.80;;;;;;4978744;28;20204;-78
2022/12/04 11:30:30;;;;;;;11.02;7.30;;;5.90;98.70;;;;;;4947244;28;20300;-77
2022/12/04 11:32:59;;;;;;;9.02;6.60;;;5.90;98.80;;;;;;4956865;28;20267;-75
2022/12/04 11:35:28;;;;;;;12.57;7.18;;;5.90;98.80;;;;;;4975099;28;20207;-76
2022/12/04 11:38:16;;;;;;;10.05;7.05;;;5.90;98.80;;;;;;4992516;28;20179;-76
2022/12/04 11:40:53;;;;;;;8.25;6.80;;;5.90;98.80;;;;;;4975172;28;20204;-76
2022/12/04 11:43:23;;;;;;;8.82;6.35;;;5.90;98.80;;;;;;4990816;28;20192;-77
2022/12/04 11:45:59;;;;;;;11.40;7.18;;;5.90;98.80;;;;;;4958541;28;20307;-77
2022/12/04 11:48:27;;;;;;;9.20;6.82;;;5.90;98.80;;;;;;4977506;28;20198;-78
2022/12/04 11:51:09;;;;;;;9.88;6.90;;;5.90;98.80;;;;;;4976383;28;20207;-75
2022/12/04 11:53:42;;;;;;;12.00;8.02;;;5.90;98.80;;;;;;4975735;28;20182;-76
2022/12/04 11:56:46;;;;;;;9.27;7.03;;;5.90;98.80;;;;;;4993103;28;20187;-75
2022/12/04 11:59:33;;;;;;;9.70;7.32;;;5.90;98.80;;;;;;4961436;28;20270;-78
2022/12/04 12:02:38;;;;;;;10.40;7.20;;;5.90;98.80;;;;;;4993803;28;20448;-76
2022/12/04 12:05:38;;;;;;;10.32;6.90;;;5.90;98.80;;;;;;4941473;28;20401;-79
2022/12/04 12:08:10;;;;;;;11.20;6.70;;;5.90;98.80;;;;;;4951449;28;20673;-78
2022/12/04 12:11:13;;;;;;;10.75;6.70;;;5.90;98.80;;;;;;4945878;28;20208;-78
2022/12/04 12:13:58;;;;;;;10.10;6.68;;;5.90;98.90;;;;;;4978775;28;20199;-79
2022/12/04 12:16:31;;;;;;;9.38;7.00;;;5.90;98.90;;;;;;4976449;28;20708;-76
2022/12/04 12:19:18;;;;;;;9.68;7.25;;;5.90;98.90;;;;;;4975382;28;20183;-77
2022/12/04 12:22:02;;;;;;;10.40;7.78;;;5.90;98.90;;;;;;4979297;28;20704;-78
2022/12/04 12:24:32;;;;;;;10.52;7.15;;;5.90;98.90;;;;;;4994315;28;20274;-78
2022/12/04 12:27:17;;;;;;;9.18;6.82;;;5.90;98.90;;;;;;4957596;28;20605;-78
2022/12/04 12:30:06;;;;;;;10.17;7.23;;;5.90;98.90;;;;;;4960531;28;20183;-78
2022/12/04 12:33:00;;;;;;;13.82;7.72;;;5.90;98.90;;;;;;4969346;28;20463;-81
2022/12/04 12:35:28;;;;;;;9.93;6.83;;;5.90;99.30;;;;;;4976413;28;20203;-73
2022/12/04 12:38:13;;;;;;;10.80;7.30;;;5.90;98.90;;;;;;4949059;28;20494;-76
2022/12/04 12:41:00;;;;;;;11.00;6.93;;;5.90;99.00;;;;;;4942536;28;20249;-77
2022/12/04 12:43:32;;;;;;;13.00;7.82;;;5.90;98.90;;;;;;4975946;28;21040;-78
2022/12/04 12:46:11;;;;;;;10.45;6.93;;;5.90;99.00;;;;;;4966266;28;20189;-75
2022/12/04 12:48:59;;;;;;;12.00;7.20;;;5.90;99.00;;;;;;4976519;28;20298;-75
2022/12/04 12:51:43;;;;;;;9.40;6.70;;;5.90;99.00;;;;;;4924277;28;20675;-75
2022/12/04 12:54:16;;;;;;;9.77;6.30;;;6.00;99.00;;;;;;4968261;28;20430;-76
2022/12/04 12:56:50;;;;;;;8.82;6.55;;;6.00;99.00;;;;;;4975026;28;20546;-76
2022/12/04 12:59:25;;;;;;;9.88;7.22;;;6.00;99.00;;;;;;4961080;28;20207;-76
2022/12/04 13:02:02;;;;;;;10.67;7.20;;;6.00;99.00;;;;;;4974166;28;20670;-77
2022/12/04 13:04:46;;;;;;;10.50;7.03;;;6.00;99.00;;;;;;4963028;28;20431;-78
2022/12/04 13:07:19;;;;;;;8.73;6.70;;;6.00;99.10;;;;;;4975371;28;20460;-76
2022/12/04 13:10:06;;;;;;;10.68;6.90;;;6.00;99.10;;;;;;4975939;28;20435;-77
2022/12/04 13:12:44;;;;;;;11.73;6.67;;;6.00;99.10;;;;;;4979113;28;20182;-76
2022/12/04 13:15:17;;;;;;;9.88;6.78;;;6.00;99.10;;;;;;4963930;28;21037;-77
2022/12/04 13:17:45;;;;;;;11.40;6.50;;;6.00;99.10;;;;;;4946542;28;20274;-76
2022/12/04 13:20:20;;;;;;;8.88;5.80;;;6.00;99.10;;;;;;4995490;28;20176;-77
2022/12/04 13:23:01;;;;;;;7.72;5.97;;;6.00;99.10;;;;;;4994432;28;20194;-77
2022/12/04 13:25:53;;;;;;;11.27;6.60;;;6.00;99.10;;;;;;4976408;28;20189;-77